sensor_id;sensor_type;location;lat;lon;timestamp;P1;durP1;ratioP1;P2;durP2;ratioP2
22007;SDS011;11168;56.976;24.168;2022-09-16T00:00:36;9.85;;;2.28;;
22007;SDS011;11168;56.976;24.168;2022-09-16T00:03:03;5.95;;;1.50;;
22007;SDS011;11168;56.976;24.168;2022-09-16T00:05:30;8.20;;;1.90;;
22007;SDS011;11168;56.976;24.168;2022-09-16T00:07:58;5.18;;;1.70;;
22007;SDS011;11168;56.976;24.168;2022-09-16T00:10:25;5.03;;;1.80;;
22007;SDS011;11168;56.976;24.168;2022-09-16T00:12:52;10.10;;;2.00;;
22007;SDS011;11168;56.976;24.168;2022-09-16T00:15:19;8.02;;;1.85;;
22007;SDS011;11168;56.976;24.168;2022-09-16T00:17:47;4.13;;;1.88;;
22007;SDS011;11168;56.976;24.168;2022-09-16T00:20:14;4.40;;;1.70;;
22007;SDS011;11168;56.976;24.168;2022-09-16T00:22:41;3.13;;;1.77;;
22007;SDS011;11168;56.976;24.168;2022-09-16T00:25:09;4.68;;;1.80;;
22007;SDS011;11168;56.976;24.168;2022-09-16T00:27:36;8.32;;;2.17;;
22007;SDS011;11168;56.976;24.168;2022-09-16T00:30:03;6.88;;;2.20;;
22007;SDS011;11168;56.976;24.168;2022-09-16T00:32:30;6.00;;;1.83;;
22007;SDS011;11168;56.976;24.168;2022-09-16T00:34:58;3.55;;;1.73;;
22007;SDS011;11168;56.976;24.168;2022-09-16T00:37:25;4.53;;;1.88;;
22007;SDS011;11168;56.976;24.168;2022-09-16T00:39:52;9.38;;;2.08;;
22007;SDS011;11168;56.976;24.168;2022-09-16T00:42:20;6.32;;;2.03;;
22007;SDS011;11168;56.976;24.168;2022-09-16T00:47:19;7.22;;;2.20;;
22007;SDS011;11168;56.976;24.168;2022-09-16T00:49:48;13.32;;;2.25;;
22007;SDS011;11168;56.976;24.168;2022-09-16T00:52:15;7.53;;;1.92;;
22007;SDS011;11168;56.976;24.168;2022-09-16T00:54:43;9.70;;;2.10;;
22007;SDS011;11168;56.976;24.168;2022-09-16T00:57:11;9.23;;;2.03;;
22007;SDS011;11168;56.976;24.168;2022-09-16T00:59:40;6.13;;;2.08;;
22007;SDS011;11168;56.976;24.168;2022-09-16T01:02:12;8.77;;;2.38;;
22007;SDS011;11168;56.976;24.168;2022-09-16T01:07:41;6.20;;;1.77;;
22007;SDS011;11168;56.976;24.168;2022-09-16T01:10:05;6.82;;;2.03;;
22007;SDS011;11168;56.976;24.168;2022-09-16T01:12:33;8.60;;;1.83;;
22007;SDS011;11168;56.976;24.168;2022-09-16T01:15:00;5.43;;;1.77;;
22007;SDS011;11168;56.976;24.168;2022-09-16T01:22:37;4.00;;;1.70;;
22007;SDS011;11168;56.976;24.168;2022-09-16T01:28:09;6.43;;;2.00;;
22007;SDS011;11168;56.976;24.168;2022-09-16T01:31:12;6.47;;;1.92;;
22007;SDS011;11168;56.976;24.168;2022-09-16T01:36:16;5.47;;;2.08;;
22007;SDS011;11168;56.976;24.168;2022-09-16T01:39:04;3.78;;;2.03;;
22007;SDS011;11168;56.976;24.168;2022-09-16T01:41:53;7.13;;;2.42;;
22007;SDS011;11168;56.976;24.168;2022-09-16T01:44:25;10.88;;;2.40;;
22007;SDS011;11168;56.976;24.168;2022-09-16T01:47:42;6.07;;;2.08;;
22007;SDS011;11168;56.976;24.168;2022-09-16T01:50:10;5.63;;;2.70;;
22007;SDS011;11168;56.976;24.168;2022-09-16T01:53:26;6.70;;;2.75;;
22007;SDS011;11168;56.976;24.168;2022-09-16T01:55:31;5.88;;;2.67;;
22007;SDS011;11168;56.976;24.168;2022-09-16T02:01:04;5.40;;;2.70;;
22007;SDS011;11168;56.976;24.168;2022-09-16T02:03:33;6.05;;;2.75;;
22007;SDS011;11168;56.976;24.168;2022-09-16T02:06:05;5.35;;;2.67;;
22007;SDS011;11168;56.976;24.168;2022-09-16T02:08:44;8.00;;;2.35;;
22007;SDS011;11168;56.976;24.168;2022-09-16T02:11:13;7.72;;;2.17;;
22007;SDS011;11168;56.976;24.168;2022-09-16T02:13:43;5.75;;;2.20;;
22007;SDS011;11168;56.976;24.168;2022-09-16T02:16:55;3.60;;;2.00;;
22007;SDS011;11168;56.976;24.168;2022-09-16T02:19:06;3.85;;;1.90;;
22007;SDS011;11168;56.976;24.168;2022-09-16T02:21:35;8.13;;;2.40;;
22007;SDS011;11168;56.976;24.168;2022-09-16T02:24:12;6.25;;;1.92;;
22007;SDS011;11168;56.976;24.168;2022-09-16T02:29:13;8.25;;;2.35;;
22007;SDS011;11168;56.976;24.168;2022-09-16T02:31:42;4.82;;;2.65;;
22007;SDS011;11168;56.976;24.168;2022-09-16T02:34:14;6.80;;;2.40;;
22007;SDS011;11168;56.976;24.168;2022-09-16T02:39:10;4.72;;;1.88;;
22007;SDS011;11168;56.976;24.168;2022-09-16T02:41:39;5.20;;;1.77;;
22007;SDS011;11168;56.976;24.168;2022-09-16T02:44:07;5.53;;;1.80;;
22007;SDS011;11168;56.976;24.168;2022-09-16T02:56:53;4.25;;;1.50;;
22007;SDS011;11168;56.976;24.168;2022-09-16T02:59:22;4.47;;;1.40;;
22007;SDS011;11168;56.976;24.168;2022-09-16T03:01:50;3.33;;;1.23;;
22007;SDS011;11168;56.976;24.168;2022-09-16T03:04:18;3.53;;;1.25;;
22007;SDS011;11168;56.976;24.168;2022-09-16T03:06:46;4.45;;;1.60;;
22007;SDS011;11168;56.976;24.168;2022-09-16T03:09:14;4.90;;;1.42;;
22007;SDS011;11168;56.976;24.168;2022-09-16T03:14:33;3.88;;;1.70;;
22007;SDS011;11168;56.976;24.168;2022-09-16T03:25:09;6.90;;;1.70;;
22007;SDS011;11168;56.976;24.168;2022-09-16T03:27:45;4.70;;;1.30;;
22007;SDS011;11168;56.976;24.168;2022-09-16T03:30:14;2.75;;;1.00;;
22007;SDS011;11168;56.976;24.168;2022-09-16T03:32:43;5.70;;;1.10;;
22007;SDS011;11168;56.976;24.168;2022-09-16T03:37:40;8.00;;;1.30;;
22007;SDS011;11168;56.976;24.168;2022-09-16T03:40:09;4.80;;;1.30;;
22007;SDS011;11168;56.976;24.168;2022-09-16T03:42:38;3.83;;;1.27;;
22007;SDS011;11168;56.976;24.168;2022-09-16T03:45:06;4.28;;;1.30;;
22007;SDS011;11168;56.976;24.168;2022-09-16T03:47:34;6.35;;;1.25;;
22007;SDS011;11168;56.976;24.168;2022-09-16T03:50:01;2.38;;;1.13;;
22007;SDS011;11168;56.976;24.168;2022-09-16T03:52:29;2.80;;;1.00;;
22007;SDS011;11168;56.976;24.168;2022-09-16T03:54:57;2.08;;;1.08;;
22007;SDS011;11168;56.976;24.168;2022-09-16T03:57:24;2.80;;;1.48;;
22007;SDS011;11168;56.976;24.168;2022-09-16T03:59:53;8.55;;;1.55;;
22007;SDS011;11168;56.976;24.168;2022-09-16T04:02:20;5.80;;;1.20;;
22007;SDS011;11168;56.976;24.168;2022-09-16T04:04:47;7.05;;;1.48;;
22007;SDS011;11168;56.976;24.168;2022-09-16T04:07:15;2.95;;;1.50;;
22007;SDS011;11168;56.976;24.168;2022-09-16T04:09:42;7.07;;;1.45;;
22007;SDS011;11168;56.976;24.168;2022-09-16T04:12:09;7.35;;;1.50;;
22007;SDS011;11168;56.976;24.168;2022-09-16T04:14:36;3.85;;;1.30;;
22007;SDS011;11168;56.976;24.168;2022-09-16T04:17:04;3.15;;;1.63;;
22007;SDS011;11168;56.976;24.168;2022-09-16T04:19:31;4.53;;;1.27;;
22007;SDS011;11168;56.976;24.168;2022-09-16T04:21:58;2.95;;;1.33;;
22007;SDS011;11168;56.976;24.168;2022-09-16T04:24:26;4.55;;;1.80;;
22007;SDS011;11168;56.976;24.168;2022-09-16T04:26:55;2.65;;;1.48;;
22007;SDS011;11168;56.976;24.168;2022-09-16T04:29:22;4.80;;;1.30;;
22007;SDS011;11168;56.976;24.168;2022-09-16T04:31:50;1.85;;;1.25;;
22007;SDS011;11168;56.976;24.168;2022-09-16T04:34:17;3.70;;;1.40;;
22007;SDS011;11168;56.976;24.168;2022-09-16T04:36:44;2.17;;;1.42;;
22007;SDS011;11168;56.976;24.168;2022-09-16T04:39:13;3.70;;;1.30;;
22007;SDS011;11168;56.976;24.168;2022-09-16T04:41:40;4.75;;;1.55;;
22007;SDS011;11168;56.976;24.168;2022-09-16T04:44:08;2.60;;;1.25;;
22007;SDS011;11168;56.976;24.168;2022-09-16T04:46:36;3.05;;;1.20;;
22007;SDS011;11168;56.976;24.168;2022-09-16T04:49:03;2.13;;;1.30;;
22007;SDS011;11168;56.976;24.168;2022-09-16T04:51:30;3.90;;;1.45;;
22007;SDS011;11168;56.976;24.168;2022-09-16T04:53:58;10.35;;;1.70;;
22007;SDS011;11168;56.976;24.168;2022-09-16T04:56:27;4.88;;;1.42;;
22007;SDS011;11168;56.976;24.168;2022-09-16T04:59:00;5.72;;;1.60;;
22007;SDS011;11168;56.976;24.168;2022-09-16T05:01:29;4.78;;;1.60;;
22007;SDS011;11168;56.976;24.168;2022-09-16T05:03:58;5.47;;;1.50;;
22007;SDS011;11168;56.976;24.168;2022-09-16T05:06:27;8.75;;;1.70;;
22007;SDS011;11168;56.976;24.168;2022-09-16T05:08:55;5.22;;;1.50;;
22007;SDS011;11168;56.976;24.168;2022-09-16T05:11:23;5.20;;;1.75;;
22007;SDS011;11168;56.976;24.168;2022-09-16T05:13:51;6.03;;;1.77;;
22007;SDS011;11168;56.976;24.168;2022-09-16T05:16:20;11.45;;;2.00;;
22007;SDS011;11168;56.976;24.168;2022-09-16T05:18:48;7.35;;;1.80;;
22007;SDS011;11168;56.976;24.168;2022-09-16T05:21:16;4.57;;;1.45;;
22007;SDS011;11168;56.976;24.168;2022-09-16T05:23:44;6.45;;;2.05;;
22007;SDS011;11168;56.976;24.168;2022-09-16T05:28:39;6.60;;;2.10;;
22007;SDS011;11168;56.976;24.168;2022-09-16T05:31:11;6.30;;;1.65;;
22007;SDS011;11168;56.976;24.168;2022-09-16T05:33:39;5.97;;;1.58;;
22007;SDS011;11168;56.976;24.168;2022-09-16T05:36:08;4.32;;;1.77;;
22007;SDS011;11168;56.976;24.168;2022-09-16T05:38:36;6.85;;;1.42;;
22007;SDS011;11168;56.976;24.168;2022-09-16T05:41:04;3.78;;;1.65;;
22007;SDS011;11168;56.976;24.168;2022-09-16T05:43:31;7.85;;;1.92;;
22007;SDS011;11168;56.976;24.168;2022-09-16T05:45:58;4.50;;;1.63;;
22007;SDS011;11168;56.976;24.168;2022-09-16T05:48:26;6.45;;;1.80;;
22007;SDS011;11168;56.976;24.168;2022-09-16T05:50:55;4.28;;;1.90;;
22007;SDS011;11168;56.976;24.168;2022-09-16T05:53:23;3.33;;;1.60;;
22007;SDS011;11168;56.976;24.168;2022-09-16T05:55:54;5.00;;;1.40;;
22007;SDS011;11168;56.976;24.168;2022-09-16T05:58:23;5.65;;;1.70;;
22007;SDS011;11168;56.976;24.168;2022-09-16T06:00:50;7.40;;;1.92;;
22007;SDS011;11168;56.976;24.168;2022-09-16T06:03:17;4.05;;;1.55;;
22007;SDS011;11168;56.976;24.168;2022-09-16T06:05:45;5.75;;;1.52;;
22007;SDS011;11168;56.976;24.168;2022-09-16T06:08:12;5.07;;;1.67;;
22007;SDS011;11168;56.976;24.168;2022-09-16T06:10:39;6.10;;;1.50;;
22007;SDS011;11168;56.976;24.168;2022-09-16T06:13:07;4.15;;;1.40;;
22007;SDS011;11168;56.976;24.168;2022-09-16T06:15:34;6.85;;;1.80;;
22007;SDS011;11168;56.976;24.168;2022-09-16T06:18:02;4.38;;;1.65;;
22007;SDS011;11168;56.976;24.168;2022-09-16T06:20:31;6.22;;;1.70;;
22007;SDS011;11168;56.976;24.168;2022-09-16T06:22:59;3.78;;;1.70;;
22007;SDS011;11168;56.976;24.168;2022-09-16T06:25:26;8.20;;;1.42;;
22007;SDS011;11168;56.976;24.168;2022-09-16T06:27:53;5.75;;;1.10;;
22007;SDS011;11168;56.976;24.168;2022-09-16T06:30:20;4.05;;;1.02;;
22007;SDS011;11168;56.976;24.168;2022-09-16T06:32:48;3.17;;;1.50;;
22007;SDS011;11168;56.976;24.168;2022-09-16T06:35:15;3.35;;;1.13;;
22007;SDS011;11168;56.976;24.168;2022-09-16T06:37:42;4.82;;;1.60;;
22007;SDS011;11168;56.976;24.168;2022-09-16T06:40:10;5.13;;;1.08;;
22007;SDS011;11168;56.976;24.168;2022-09-16T06:42:37;2.92;;;1.08;;
22007;SDS011;11168;56.976;24.168;2022-09-16T06:45:04;4.53;;;1.10;;
22007;SDS011;11168;56.976;24.168;2022-09-16T06:47:32;2.03;;;0.90;;
22007;SDS011;11168;56.976;24.168;2022-09-16T06:49:59;3.72;;;1.23;;
22007;SDS011;11168;56.976;24.168;2022-09-16T06:52:26;7.13;;;1.02;;
22007;SDS011;11168;56.976;24.168;2022-09-16T06:54:54;3.10;;;1.00;;
22007;SDS011;11168;56.976;24.168;2022-09-16T06:57:21;3.80;;;1.10;;
22007;SDS011;11168;56.976;24.168;2022-09-16T06:59:49;5.32;;;1.13;;
22007;SDS011;11168;56.976;24.168;2022-09-16T07:02:16;5.03;;;1.05;;
22007;SDS011;11168;56.976;24.168;2022-09-16T07:04:44;4.00;;;1.20;;
22007;SDS011;11168;56.976;24.168;2022-09-16T07:07:11;3.10;;;0.70;;
22007;SDS011;11168;56.976;24.168;2022-09-16T07:09:38;3.28;;;1.00;;
22007;SDS011;11168;56.976;24.168;2022-09-16T07:12:06;5.57;;;0.98;;
22007;SDS011;11168;56.976;24.168;2022-09-16T07:14:34;6.88;;;0.63;;
22007;SDS011;11168;56.976;24.168;2022-09-16T07:17:02;6.00;;;1.10;;
22007;SDS011;11168;56.976;24.168;2022-09-16T07:19:30;4.40;;;0.95;;
22007;SDS011;11168;56.976;24.168;2022-09-16T07:21:57;2.33;;;0.80;;
22007;SDS011;11168;56.976;24.168;2022-09-16T07:24:24;3.35;;;0.55;;
22007;SDS011;11168;56.976;24.168;2022-09-16T07:26:52;3.65;;;0.73;;
22007;SDS011;11168;56.976;24.168;2022-09-16T07:29:19;4.25;;;0.98;;
22007;SDS011;11168;56.976;24.168;2022-09-16T07:31:47;2.55;;;0.68;;
22007;SDS011;11168;56.976;24.168;2022-09-16T07:34:14;3.22;;;0.80;;
22007;SDS011;11168;56.976;24.168;2022-09-16T07:36:46;4.65;;;0.90;;
22007;SDS011;11168;56.976;24.168;2022-09-16T07:39:14;4.15;;;0.68;;
22007;SDS011;11168;56.976;24.168;2022-09-16T07:41:42;4.55;;;0.88;;
22007;SDS011;11168;56.976;24.168;2022-09-16T07:44:12;2.95;;;0.90;;
22007;SDS011;11168;56.976;24.168;2022-09-16T07:46:40;6.83;;;0.83;;
22007;SDS011;11168;56.976;24.168;2022-09-16T07:49:08;2.90;;;0.82;;
22007;SDS011;11168;56.976;24.168;2022-09-16T07:51:36;5.85;;;0.70;;
22007;SDS011;11168;56.976;24.168;2022-09-16T07:54:07;2.78;;;0.77;;
22007;SDS011;11168;56.976;24.168;2022-09-16T07:59:03;2.45;;;0.70;;
22007;SDS011;11168;56.976;24.168;2022-09-16T08:01:31;3.72;;;0.73;;
22007;SDS011;11168;56.976;24.168;2022-09-16T08:03:59;3.85;;;0.60;;
22007;SDS011;11168;56.976;24.168;2022-09-16T08:06:28;6.45;;;1.15;;
22007;SDS011;11168;56.976;24.168;2022-09-16T08:08:56;2.85;;;0.50;;
22007;SDS011;11168;56.976;24.168;2022-09-16T08:11:40;2.55;;;0.70;;
22007;SDS011;11168;56.976;24.168;2022-09-16T08:14:08;3.20;;;0.73;;
22007;SDS011;11168;56.976;24.168;2022-09-16T08:16:35;2.40;;;0.80;;
22007;SDS011;11168;56.976;24.168;2022-09-16T08:19:03;2.55;;;0.65;;
22007;SDS011;11168;56.976;24.168;2022-09-16T08:21:30;1.20;;;0.70;;
22007;SDS011;11168;56.976;24.168;2022-09-16T08:23:58;1.45;;;0.45;;
22007;SDS011;11168;56.976;24.168;2022-09-16T08:26:25;2.97;;;0.60;;
22007;SDS011;11168;56.976;24.168;2022-09-16T08:28:52;2.90;;;0.60;;
22007;SDS011;11168;56.976;24.168;2022-09-16T08:31:35;5.05;;;0.70;;
22007;SDS011;11168;56.976;24.168;2022-09-16T08:34:02;5.85;;;0.65;;
22007;SDS011;11168;56.976;24.168;2022-09-16T08:36:29;1.67;;;0.30;;
22007;SDS011;11168;56.976;24.168;2022-09-16T08:38:58;6.75;;;0.70;;
22007;SDS011;11168;56.976;24.168;2022-09-16T08:51:52;6.45;;;1.20;;
22007;SDS011;11168;56.976;24.168;2022-09-16T08:54:27;7.63;;;0.77;;
22007;SDS011;11168;56.976;24.168;2022-09-16T08:56:58;2.88;;;0.55;;
22007;SDS011;11168;56.976;24.168;2022-09-16T08:59:27;3.38;;;0.50;;
22007;SDS011;11168;56.976;24.168;2022-09-16T09:01:57;1.95;;;0.73;;
22007;SDS011;11168;56.976;24.168;2022-09-16T09:04:33;1.58;;;0.68;;
22007;SDS011;11168;56.976;24.168;2022-09-16T09:07:05;2.50;;;0.40;;
22007;SDS011;11168;56.976;24.168;2022-09-16T09:12:36;4.60;;;0.70;;
22007;SDS011;11168;56.976;24.168;2022-09-16T09:18:04;4.55;;;0.60;;
22007;SDS011;11168;56.976;24.168;2022-09-16T09:25:57;5.45;;;0.70;;
22007;SDS011;11168;56.976;24.168;2022-09-16T09:30:56;4.15;;;0.70;;
22007;SDS011;11168;56.976;24.168;2022-09-16T09:39:14;5.75;;;0.68;;
22007;SDS011;11168;56.976;24.168;2022-09-16T09:42:01;6.03;;;0.80;;
22007;SDS011;11168;56.976;24.168;2022-09-16T09:44:37;3.58;;;0.90;;
22007;SDS011;11168;56.976;24.168;2022-09-16T09:47:11;2.47;;;0.70;;
22007;SDS011;11168;56.976;24.168;2022-09-16T09:54:43;3.97;;;0.77;;
22007;SDS011;11168;56.976;24.168;2022-09-16T09:57:32;2.80;;;0.70;;
22007;SDS011;11168;56.976;24.168;2022-09-16T10:00:13;1.83;;;0.75;;
22007;SDS011;11168;56.976;24.168;2022-09-16T10:02:43;2.38;;;0.80;;
22007;SDS011;11168;56.976;24.168;2022-09-16T10:05:26;4.60;;;0.75;;
22007;SDS011;11168;56.976;24.168;2022-09-16T10:07:57;5.07;;;1.08;;
22007;SDS011;11168;56.976;24.168;2022-09-16T10:10:26;4.00;;;0.60;;
22007;SDS011;11168;56.976;24.168;2022-09-16T10:13:04;4.07;;;0.57;;
22007;SDS011;11168;56.976;24.168;2022-09-16T10:15:32;1.88;;;0.68;;
22007;SDS011;11168;56.976;24.168;2022-09-16T10:17:59;2.70;;;0.80;;
22007;SDS011;11168;56.976;24.168;2022-09-16T10:20:30;3.28;;;0.70;;
22007;SDS011;11168;56.976;24.168;2022-09-16T10:23:08;5.07;;;1.00;;
22007;SDS011;11168;56.976;24.168;2022-09-16T10:25:36;4.93;;;1.10;;
22007;SDS011;11168;56.976;24.168;2022-09-16T10:28:04;8.32;;;0.70;;
22007;SDS011;11168;56.976;24.168;2022-09-16T10:30:45;2.65;;;0.70;;
22007;SDS011;11168;56.976;24.168;2022-09-16T10:35:56;6.18;;;0.82;;
22007;SDS011;11168;56.976;24.168;2022-09-16T10:38:35;9.95;;;1.00;;
22007;SDS011;11168;56.976;24.168;2022-09-16T10:41:20;6.05;;;1.23;;
22007;SDS011;11168;56.976;24.168;2022-09-16T10:43:49;1.17;;;0.60;;
22007;SDS011;11168;56.976;24.168;2022-09-16T10:46:17;2.72;;;0.60;;
22007;SDS011;11168;56.976;24.168;2022-09-16T10:48:45;6.65;;;0.90;;
22007;SDS011;11168;56.976;24.168;2022-09-16T10:51:23;8.65;;;0.93;;
22007;SDS011;11168;56.976;24.168;2022-09-16T10:53:51;5.97;;;0.77;;
22007;SDS011;11168;56.976;24.168;2022-09-16T10:56:21;6.25;;;1.13;;
22007;SDS011;11168;56.976;24.168;2022-09-16T10:58:48;2.95;;;0.55;;
22007;SDS011;11168;56.976;24.168;2022-09-16T11:09:02;4.25;;;0.90;;
22007;SDS011;11168;56.976;24.168;2022-09-16T11:32:28;2.30;;;0.77;;
22007;SDS011;11168;56.976;24.168;2022-09-16T11:40:27;2.88;;;0.70;;
22007;SDS011;11168;56.976;24.168;2022-09-16T11:43:10;3.58;;;0.98;;
22007;SDS011;11168;56.976;24.168;2022-09-16T11:51:06;4.88;;;0.80;;
22007;SDS011;11168;56.976;24.168;2022-09-16T11:56:12;1.85;;;0.82;;
22007;SDS011;11168;56.976;24.168;2022-09-16T12:06:21;5.25;;;0.85;;
22007;SDS011;11168;56.976;24.168;2022-09-16T12:08:55;2.83;;;0.85;;
22007;SDS011;11168;56.976;24.168;2022-09-16T12:11:25;5.03;;;0.82;;
22007;SDS011;11168;56.976;24.168;2022-09-16T12:14:07;9.45;;;1.00;;
22007;SDS011;11168;56.976;24.168;2022-09-16T12:16:46;6.93;;;0.98;;
22007;SDS011;11168;56.976;24.168;2022-09-16T12:19:19;5.38;;;0.60;;
22007;SDS011;11168;56.976;24.168;2022-09-16T12:22:02;3.72;;;0.70;;
22007;SDS011;11168;56.976;24.168;2022-09-16T12:27:08;2.65;;;0.88;;
22007;SDS011;11168;56.976;24.168;2022-09-16T12:29:41;3.22;;;0.75;;
22007;SDS011;11168;56.976;24.168;2022-09-16T12:32:18;2.53;;;0.80;;
22007;SDS011;11168;56.976;24.168;2022-09-16T12:34:51;2.83;;;0.70;;
22007;SDS011;11168;56.976;24.168;2022-09-16T12:37:38;3.13;;;0.80;;
22007;SDS011;11168;56.976;24.168;2022-09-16T12:40:17;2.83;;;0.70;;
22007;SDS011;11168;56.976;24.168;2022-09-16T12:56:08;1.80;;;0.60;;
22007;SDS011;11168;56.976;24.168;2022-09-16T13:03:36;7.70;;;1.38;;
22007;SDS011;11168;56.976;24.168;2022-09-16T13:06:12;7.95;;;0.90;;
22007;SDS011;11168;56.976;24.168;2022-09-16T13:08:42;7.00;;;0.90;;
22007;SDS011;11168;56.976;24.168;2022-09-16T13:11:16;6.82;;;0.90;;
22007;SDS011;11168;56.976;24.168;2022-09-16T13:14:13;6.30;;;0.80;;
22007;SDS011;11168;56.976;24.168;2022-09-16T13:16:54;7.88;;;0.80;;
22007;SDS011;11168;56.976;24.168;2022-09-16T13:19:44;3.15;;;0.50;;
22007;SDS011;11168;56.976;24.168;2022-09-16T13:22:14;4.03;;;0.60;;
22007;SDS011;11168;56.976;24.168;2022-09-16T13:24:48;2.85;;;0.43;;
22007;SDS011;11168;56.976;24.168;2022-09-16T13:29:50;1.70;;;0.30;;
22007;SDS011;11168;56.976;24.168;2022-09-16T13:37:45;3.80;;;0.50;;
22007;SDS011;11168;56.976;24.168;2022-09-16T13:40:26;3.13;;;0.60;;
22007;SDS011;11168;56.976;24.168;2022-09-16T13:43:11;1.80;;;0.60;;
22007;SDS011;11168;56.976;24.168;2022-09-16T13:45:40;3.00;;;0.60;;
22007;SDS011;11168;56.976;24.168;2022-09-16T13:48:12;1.75;;;0.32;;
22007;SDS011;11168;56.976;24.168;2022-09-16T13:50:49;2.38;;;0.70;;
22007;SDS011;11168;56.976;24.168;2022-09-16T13:53:19;3.03;;;0.77;;
22007;SDS011;11168;56.976;24.168;2022-09-16T13:55:47;4.00;;;1.00;;
22007;SDS011;11168;56.976;24.168;2022-09-16T13:58:27;5.03;;;1.00;;
22007;SDS011;11168;56.976;24.168;2022-09-16T14:01:12;4.27;;;1.00;;
22007;SDS011;11168;56.976;24.168;2022-09-16T14:13:41;3.53;;;1.08;;
22007;SDS011;11168;56.976;24.168;2022-09-16T14:16:25;3.67;;;1.38;;
22007;SDS011;11168;56.976;24.168;2022-09-16T14:21:30;4.05;;;1.23;;
22007;SDS011;11168;56.976;24.168;2022-09-16T14:24:16;3.92;;;1.30;;
22007;SDS011;11168;56.976;24.168;2022-09-16T14:26:54;3.88;;;1.23;;
22007;SDS011;11168;56.976;24.168;2022-09-16T14:29:23;3.50;;;1.08;;
22007;SDS011;11168;56.976;24.168;2022-09-16T14:31:52;5.70;;;1.35;;
22007;SDS011;11168;56.976;24.168;2022-09-16T14:34:30;3.70;;;0.95;;
22007;SDS011;11168;56.976;24.168;2022-09-16T14:36:59;4.68;;;1.20;;
22007;SDS011;11168;56.976;24.168;2022-09-16T14:39:26;3.38;;;1.40;;
22007;SDS011;11168;56.976;24.168;2022-09-16T14:41:59;8.00;;;1.70;;
22007;SDS011;11168;56.976;24.168;2022-09-16T14:44:31;5.05;;;1.55;;
22007;SDS011;11168;56.976;24.168;2022-09-16T14:49:38;7.72;;;1.90;;
22007;SDS011;11168;56.976;24.168;2022-09-16T14:52:13;7.15;;;1.30;;
22007;SDS011;11168;56.976;24.168;2022-09-16T14:54:42;7.03;;;2.05;;
22007;SDS011;11168;56.976;24.168;2022-09-16T14:57:13;9.88;;;2.00;;
22007;SDS011;11168;56.976;24.168;2022-09-16T14:59:41;4.60;;;1.55;;
22007;SDS011;11168;56.976;24.168;2022-09-16T15:04:43;6.85;;;1.63;;
22007;SDS011;11168;56.976;24.168;2022-09-16T15:07:17;5.57;;;1.55;;
22007;SDS011;11168;56.976;24.168;2022-09-16T15:09:52;4.53;;;1.38;;
22007;SDS011;11168;56.976;24.168;2022-09-16T15:12:22;5.22;;;1.50;;
22007;SDS011;11168;56.976;24.168;2022-09-16T15:14:51;3.67;;;1.45;;
22007;SDS011;11168;56.976;24.168;2022-09-16T15:17:19;6.70;;;2.13;;
22007;SDS011;11168;56.976;24.168;2022-09-16T15:19:49;9.95;;;2.90;;
22007;SDS011;11168;56.976;24.168;2022-09-16T15:22:17;8.45;;;2.40;;
22007;SDS011;11168;56.976;24.168;2022-09-16T15:24:45;7.68;;;2.17;;
22007;SDS011;11168;56.976;24.168;2022-09-16T15:27:19;7.18;;;2.50;;
22007;SDS011;11168;56.976;24.168;2022-09-16T15:29:47;7.47;;;2.47;;
22007;SDS011;11168;56.976;24.168;2022-09-16T15:34:43;6.63;;;1.58;;
22007;SDS011;11168;56.976;24.168;2022-09-16T15:37:30;6.63;;;1.90;;
22007;SDS011;11168;56.976;24.168;2022-09-16T15:42:37;5.28;;;1.30;;
22007;SDS011;11168;56.976;24.168;2022-09-16T15:45:10;3.20;;;1.17;;
22007;SDS011;11168;56.976;24.168;2022-09-16T15:47:46;4.47;;;1.33;;
22007;SDS011;11168;56.976;24.168;2022-09-16T15:50:16;2.70;;;1.15;;
22007;SDS011;11168;56.976;24.168;2022-09-16T15:57:58;3.30;;;1.23;;
22007;SDS011;11168;56.976;24.168;2022-09-16T16:00:28;3.30;;;1.30;;
22007;SDS011;11168;56.976;24.168;2022-09-16T16:03:02;6.65;;;1.58;;
22007;SDS011;11168;56.976;24.168;2022-09-16T16:05:48;4.20;;;1.27;;
22007;SDS011;11168;56.976;24.168;2022-09-16T16:08:35;3.72;;;1.40;;
22007;SDS011;11168;56.976;24.168;2022-09-16T16:11:37;7.13;;;1.45;;
22007;SDS011;11168;56.976;24.168;2022-09-16T16:13:57;4.30;;;1.30;;
22007;SDS011;11168;56.976;24.168;2022-09-16T16:16:27;3.42;;;1.58;;
22007;SDS011;11168;56.976;24.168;2022-09-16T16:18:54;2.35;;;1.13;;
22007;SDS011;11168;56.976;24.168;2022-09-16T16:21:22;5.90;;;1.77;;
22007;SDS011;11168;56.976;24.168;2022-09-16T16:23:49;5.22;;;1.55;;
22007;SDS011;11168;56.976;24.168;2022-09-16T16:26:17;4.47;;;1.63;;
22007;SDS011;11168;56.976;24.168;2022-09-16T16:28:45;5.22;;;1.63;;
22007;SDS011;11168;56.976;24.168;2022-09-16T16:31:16;2.47;;;1.40;;
22007;SDS011;11168;56.976;24.168;2022-09-16T16:33:44;4.05;;;1.40;;
22007;SDS011;11168;56.976;24.168;2022-09-16T16:36:13;4.38;;;1.45;;
22007;SDS011;11168;56.976;24.168;2022-09-16T16:38:41;4.28;;;1.20;;
22007;SDS011;11168;56.976;24.168;2022-09-16T16:41:08;7.25;;;1.40;;
22007;SDS011;11168;56.976;24.168;2022-09-16T16:43:38;3.40;;;1.20;;
22007;SDS011;11168;56.976;24.168;2022-09-16T16:46:05;6.30;;;1.27;;
22007;SDS011;11168;56.976;24.168;2022-09-16T16:48:33;3.25;;;1.38;;
22007;SDS011;11168;56.976;24.168;2022-09-16T16:51:02;2.33;;;1.17;;
22007;SDS011;11168;56.976;24.168;2022-09-16T16:53:30;3.72;;;1.38;;
22007;SDS011;11168;56.976;24.168;2022-09-16T16:56:01;7.03;;;1.90;;
22007;SDS011;11168;56.976;24.168;2022-09-16T16:58:30;2.90;;;1.35;;
22007;SDS011;11168;56.976;24.168;2022-09-16T17:01:10;3.50;;;1.20;;
22007;SDS011;11168;56.976;24.168;2022-09-16T17:03:42;4.35;;;1.50;;
22007;SDS011;11168;56.976;24.168;2022-09-16T17:06:10;3.75;;;1.45;;
22007;SDS011;11168;56.976;24.168;2022-09-16T17:08:37;5.80;;;1.23;;
22007;SDS011;11168;56.976;24.168;2022-09-16T17:13:38;2.97;;;1.40;;
22007;SDS011;11168;56.976;24.168;2022-09-16T17:16:06;4.78;;;1.50;;
22007;SDS011;11168;56.976;24.168;2022-09-16T17:18:34;5.70;;;1.55;;
22007;SDS011;11168;56.976;24.168;2022-09-16T17:21:03;2.55;;;1.17;;
22007;SDS011;11168;56.976;24.168;2022-09-16T17:23:30;3.33;;;1.48;;
22007;SDS011;11168;56.976;24.168;2022-09-16T17:25:58;5.30;;;1.40;;
22007;SDS011;11168;56.976;24.168;2022-09-16T17:28:25;4.32;;;1.63;;
22007;SDS011;11168;56.976;24.168;2022-09-16T17:30:52;5.90;;;1.65;;
22007;SDS011;11168;56.976;24.168;2022-09-16T17:33:20;4.28;;;1.80;;
22007;SDS011;11168;56.976;24.168;2022-09-16T17:35:47;8.98;;;1.83;;
22007;SDS011;11168;56.976;24.168;2022-09-16T17:38:24;5.53;;;1.95;;
22007;SDS011;11168;56.976;24.168;2022-09-16T17:40:58;6.05;;;1.60;;
22007;SDS011;11168;56.976;24.168;2022-09-16T17:43:26;5.13;;;1.60;;
22007;SDS011;11168;56.976;24.168;2022-09-16T17:45:58;5.70;;;1.80;;
22007;SDS011;11168;56.976;24.168;2022-09-16T17:48:25;6.70;;;2.05;;
22007;SDS011;11168;56.976;24.168;2022-09-16T17:50:53;4.53;;;1.88;;
22007;SDS011;11168;56.976;24.168;2022-09-16T17:53:21;3.65;;;1.50;;
22007;SDS011;11168;56.976;24.168;2022-09-16T17:55:48;6.47;;;1.70;;
22007;SDS011;11168;56.976;24.168;2022-09-16T17:58:16;6.80;;;1.65;;
22007;SDS011;11168;56.976;24.168;2022-09-16T18:00:43;7.70;;;1.85;;
22007;SDS011;11168;56.976;24.168;2022-09-16T18:03:11;4.85;;;1.85;;
22007;SDS011;11168;56.976;24.168;2022-09-16T18:05:38;6.68;;;1.83;;
22007;SDS011;11168;56.976;24.168;2022-09-16T18:08:05;7.55;;;1.85;;
22007;SDS011;11168;56.976;24.168;2022-09-16T18:10:33;4.03;;;1.95;;
22007;SDS011;11168;56.976;24.168;2022-09-16T18:13:00;4.50;;;1.60;;